PDT,Max TemperatureF,Mean TemperatureF,Min TemperatureF,Max Dew PointF,MeanDew PointF,Min DewpointF,Max Humidity, Mean Humidity, Min Humidity, Max Sea Level PressureIn, Mean Sea Level PressureIn, Min Sea Level PressureIn, Max VisibilityMiles, Mean VisibilityMiles, Min VisibilityMiles, Max Wind SpeedMPH, Mean Wind SpeedMPH, Max Gust SpeedMPH,PrecipitationIn, CloudCover, Events, WindDirDegrees
2013-3-1,53,47,41,52,48,41,100,96,87,30.51,30.45,30.36,10,6,1,18,11,25,0.00,6,Rain,189
2013-3-2,50,44,37,50,45,37,100,97,87,30.36,30.29,30.26,10,6,0,12,4,17,0.02,7,Fog-Rain,357
2013-3-3,48,40,32,39,36,32,100,86,62,30.36,30.32,30.25,10,10,5,18,5,23,0.00,2,Rain,44
2013-3-4,51,42,33,43,36,32,100,81,54,30.23,30.07,29.91,10,9,7,22,9,28,0.00,1,,111
2013-3-5,44,42,41,43,40,36,100,92,71,29.90,29.81,29.64,10,8,3,12,6,17,0.42,8,Rain,140
2013-3-6,48,44,41,45,42,37,100,92,82,29.98,29.76,29.59,10,9,4,23,7,30,0.26,7,Rain,178
2013-3-7,50,42,35,41,38,34,100,86,62,30.07,30.04,29.99,10,10,5,8,5,,0.00,0,,89
2013-3-8,50,41,32,43,38,32,100,93,76,30.25,30.12,30.06,10,7,0,13,5,16,0.00,3,Fog,18
2013-3-9,50,42,33,45,39,34,100,92,76,30.54,30.44,30.26,10,7,0,13,4,,0.00,3,Fog,36
2013-3-10,50,42,35,46,42,34,100,93,71,30.53,30.49,30.45,10,4,0,7,3,,0.01,6,Fog-Rain,148
2013-3-11,50,47,44,50,47,45,100,97,87,30.46,30.39,30.28,10,5,0,7,1,,0.01,8,Fog,232
2013-3-12,51,46,42,50,46,43,100,97,87,30.28,30.26,30.23,10,6,0,13,3,,0.00,7,Fog,203
2013-3-13,53,48,42,48,45,43,100,94,72,30.29,30.23,30.16,10,7,1,10,2,,0.00,5,,219
2013-3-14,53,50,46,50,45,43,100,89,72,30.26,30.18,30.12,10,7,1,23,10,31,0.10,8,Rain,189
2013-3-15,51,48,44,50,48,45,100,96,93,30.29,30.27,30.25,10,2,0,15,9,22,0.02,8,Fog-Rain,222
2013-3-16,48,45,42,46,43,34,100,92,70,30.25,30.19,30.11,10,7,2,21,9,30,0.20,8,Rain,236
2013-3-17,46,42,37,39,35,32,100,76,62,30.36,30.32,30.24,10,10,5,15,9,22,0.02,5,Rain,275
2013-3-18,50,41,32,41,37,32,100,88,66,30.33,30.27,30.13,10,9,2,16,5,21,0.01,2,,51
2013-3-19,53,48,42,50,41,34,100,79,58,30.12,29.94,29.69,10,8,3,31,10,46,0.57,7,Rain,126
2013-3-20,51,46,42,48,42,32,100,84,66,30.25,29.88,29.60,10,6,2,39,25,59,0.22,8,Rain,245
2013-3-21,46,44,41,37,35,32,87,73,62,30.39,30.33,30.25,10,9,5,18,10,25,0.00,8,Rain,281
2013-3-22,46,40,33,37,35,32,100,85,66,30.43,30.40,30.37,10,10,4,18,6,23,0.01,4,Rain,2
2013-3-23,46,39,32,36,33,32,100,81,57,30.42,30.37,30.29,10,10,7,15,6,20,0.00,2,,53
2013-3-24,50,42,35,39,35,32,93,74,54,30.29,30.20,30.12,10,10,10,12,5,,0.00,4,,23
2013-3-25,51,44,37,43,39,34,93,80,50,30.11,30.04,29.99,10,10,7,10,4,,0.00,5,,22
2013-3-26,50,47,44,46,45,43,100,94,82,30.06,30.03,29.98,10,8,3,8,2,,0.00,7,Rain,207
2013-3-27,53,48,42,50,46,43,100,92,77,30.03,29.97,29.94,10,9,1,10,5,,0.02,7,Rain,144
2013-3-28,53,48,44,52,48,43,100,95,82,30.19,30.10,30.03,10,8,0,10,2,,0.00,8,Fog-Rain,1
2013-3-29,57,50,44,50,47,43,100,91,77,30.24,30.20,30.17,10,9,1,16,4,22,0.00,4,Rain,352
2013-3-30,71,56,42,50,47,41,100,73,41,30.19,30.08,29.97,10,9,1,28,9,32,0.00,1,,41
2013-3-31,59,52,44,52,49,43,100,91,72,30.08,30.04,30.01,10,8,0,22,10,31,0.00,5,Fog,188